Nearby METAR Reports


NZWN - Wellington Intl, New Zealand
Distance from station: SSW 357km
Updated: 18/12/2017 08:00
Mostly Cloudy
Mostly Cloudy
 Wind from S
Wind: S 37 km/h
Temperature: 17°C
Dew Point: 15°C
Humidity: 88%
Barometer: 1012 hPa
Clouds: Mostly Cloudy
Visibility: 9 km
Cloud details: Mostly Cloudy 457 m
2017/12/17 19:00 NZWN 171900Z AUTO 18020KT 9000 BKN015/// 17/15 Q1012 BECMG BKN018 TEMPO 6000 RA BKN012
NZAA - Auckland Intl Ar, New Zealand
Distance from station: NW 162km
Updated: 18/12/2017 08:00
Few Clouds
Few Clouds
 Wind from WSW
Wind: WSW 15 km/h
Temperature: 21°C
Dew Point: 17°C
Humidity: 78%
Barometer: 1012 hPa
Clouds: Few Clouds
Visibility: 10 km
Cloud details: Few Clouds 396 m
2017/12/17 19:00 NZAA 171900Z AUTO 25008KT 9999 FEW013/// 21/17 Q1012 TEMPO BKN014
 
NZCH - Christchurch Int, New Zealand
Distance from station: SSW 647km
Updated: 18/12/2017 08:00
Mostly Cloudy
Mostly Cloudy
 Wind from WSW
Wind: WSW 17 km/h
Temperature: 14°C
Dew Point: 8°C
Humidity: 67%
Barometer: 1015 hPa
Clouds: Mostly Cloudy
Visibility: 10 km
Cloud details: Mostly Cloudy 1981 m
2017/12/17 19:00 NZCH 171900Z AUTO 24009KT 210V290 9999 BKN065/// 14/08 Q1015 NOSIG
YSNF - Norfolk Island A, Australia
Distance from station: NW 1258km
Updated: 18/12/2017 08:00
Mostly Cloudy
Mostly Cloudy
 Wind from S
Wind: S 17 km/h
Temperature: 20°C
Dew Point: 15°C
Humidity: 73%
Barometer: 1016 hPa
Clouds: Mostly Cloudy
Visibility: 10 km
Cloud details: Mostly Cloudy 762 m
2017/12/17 19:00 YSNF 171900Z AUTO 17009KT 9999 // BKN025 20/15 Q1016